地図

経路データ

SID SEASON NUMBER BASIN SUBBASIN NAME ISO_TIME NATURE LAT LON WMO_WIND WMO_PRES WMO_AGENCY TRACK_TYPE DIST2LAND LANDFALL IFLAG USA_AGENCY USA_ATCF_ID USA_LAT USA_LON USA_RECORD USA_STATUS USA_WIND USA_PRES USA_SSHS USA_R34_NE USA_R34_SE USA_R34_SW USA_R34_NW USA_R50_NE USA_R50_SE USA_R50_SW USA_R50_NW USA_R64_NE USA_R64_SE USA_R64_SW USA_R64_NW USA_POCI USA_ROCI USA_RMW USA_EYE TOKYO_LAT TOKYO_LON TOKYO_GRADE TOKYO_WIND TOKYO_PRES TOKYO_R50_DIR TOKYO_R50_LONG TOKYO_R50_SHORT TOKYO_R30_DIR TOKYO_R30_LONG TOKYO_R30_SHORT TOKYO_LAND CMA_LAT CMA_LON CMA_CAT CMA_WIND CMA_PRES HKO_LAT HKO_LON HKO_CAT HKO_WIND HKO_PRES NEWDELHI_LAT NEWDELHI_LON NEWDELHI_GRADE NEWDELHI_WIND NEWDELHI_PRES NEWDELHI_CI NEWDELHI_DP NEWDELHI_POCI REUNION_LAT REUNION_LON REUNION_TYPE REUNION_WIND REUNION_PRES REUNION_TNUM REUNION_CI REUNION_RMW REUNION_R34_NE REUNION_R34_SE REUNION_R34_SW REUNION_R34_NW REUNION_R50_NE REUNION_R50_SE REUNION_R50_SW REUNION_R50_NW REUNION_R64_NE REUNION_R64_SE REUNION_R64_SW REUNION_R64_NW BOM_LAT BOM_LON BOM_TYPE BOM_WIND BOM_PRES BOM_TNUM BOM_CI BOM_RMW BOM_R34_NE BOM_R34_SE BOM_R34_SW BOM_R34_NW BOM_R50_NE BOM_R50_SE BOM_R50_SW BOM_R50_NW BOM_R64_NE BOM_R64_SE BOM_R64_SW BOM_R64_NW BOM_ROCI BOM_POCI BOM_EYE BOM_POS_METHOD BOM_PRES_METHOD NADI_LAT NADI_LON NADI_CAT NADI_WIND NADI_PRES WELLINGTON_LAT WELLINGTON_LON WELLINGTON_WIND WELLINGTON_PRES DS824_LAT DS824_LON DS824_STAGE DS824_WIND DS824_PRES TD9636_LAT TD9636_LON TD9636_STAGE TD9636_WIND TD9636_PRES TD9635_LAT TD9635_LON TD9635_WIND TD9635_PRES TD9635_ROCI NEUMANN_LAT NEUMANN_LON NEUMANN_CLASS NEUMANN_WIND NEUMANN_PRES MLC_LAT MLC_LON MLC_CLASS MLC_WIND MLC_PRES USA_GUST BOM_GUST BOM_GUST_PER REUNION_GUST REUNION_GUST_PER USA_SEAHGT USA_SEARAD_NE USA_SEARAD_SE USA_SEARAD_SW USA_SEARAD_NW STORM_SPEED STORM_DIR
1907344S12045 1908 64 SI MM NOT_NAMED 1907-12-10 00:00:00 TS -12.0000 44.8000 main 386 380 _________O____ -1 -12.0000 44.8000 TC 6 218
1907344S12045 1908 64 SI MM NOT_NAMED 1907-12-10 03:00:00 TS -12.2450 44.6001 main 395 390 _________P____ -1 -12.2450 44.6001 TC 6 218
1907344S12045 1908 64 SI MM NOT_NAMED 1907-12-10 06:00:00 TS -12.5000 44.4000 main 399 371 _________O____ -1 -12.5000 44.4000 TC 7 217
1907344S12045 1908 64 SI MM NOT_NAMED 1907-12-10 09:00:00 TS -12.7650 44.2000 main 371 356 _________P____ -1 -12.7650 44.2000 TC 6 218
1907344S12045 1908 64 SI MM NOT_NAMED 1907-12-10 12:00:00 TS -13.0000 44.0000 main 356 348 _________O____ -1 -13.0000 44.0000 TC 6 225
1907344S12045 1908 64 SI MM NOT_NAMED 1907-12-10 15:00:00 TS -13.1575 43.7999 main 343 324 _________P____ -1 -13.1575 43.7999 TC 5 232
1907344S12045 1908 64 SI MM NOT_NAMED 1907-12-10 18:00:00 TS -13.3000 43.6000 main 324 302 _________O____ -1 -13.3000 43.6000 TC 5 230
1907344S12045 1908 64 SI MM NOT_NAMED 1907-12-10 21:00:00 TS -13.4925 43.3925 main 302 274 _________P____ -1 -13.4925 43.3925 TC 6 224
1907344S12045 1908 64 SI MM NOT_NAMED 1907-12-11 00:00:00 TS -13.7000 43.2000 main 274 256 _________O____ -1 -13.7000 43.2000 TC 5 220
1907344S12045 1908 64 SI MM NOT_NAMED 1907-12-11 03:00:00 TS -13.9000 43.0425 main 246 230 _________P____ -1 -13.9000 43.0425 TC 5 216
1907344S12045 1908 64 SI MM NOT_NAMED 1907-12-11 06:00:00 TS -14.1000 42.9000 main 230 216 _________O____ -1 -14.1000 42.9000 TC 5 215
1907344S12045 1908 64 SI MM NOT_NAMED 1907-12-11 09:00:00 TS -14.2925 42.7574 main 216 193 _________P____ -1 -14.2925 42.7574 TC 5 216
1907344S12045 1908 64 SI MM NOT_NAMED 1907-12-11 12:00:00 TS -14.5000 42.6000 main 193 172 _________O____ -1 -14.5000 42.6000 TC 6 217
1907344S12045 1908 64 SI MM NOT_NAMED 1907-12-11 15:00:00 TS -14.7425 42.4075 main 172 150 _________P____ -1 -14.7425 42.4075 TC 6 218
1907344S12045 1908 64 SI MM NOT_NAMED 1907-12-11 18:00:00 TS -15.0000 42.2000 main 150 130 _________O____ -1 -15.0000 42.2000 TC 7 219
1907344S12045 1908 64 SI MM NOT_NAMED 1907-12-11 21:00:00 TS -15.2500 41.9850 main 133 116 _________P____ -1 -15.2500 41.9850 TC 6 218
1907344S12045 1908 64 SI MM NOT_NAMED 1907-12-12 00:00:00 TS -15.5000 41.8000 main 121 117 _________O____ -1 -15.5000 41.8000 TC 6 210
1907344S12045 1908 64 SI MM NOT_NAMED 1907-12-12 03:00:00 TS -15.7500 41.6849 main 122 120 _________P____ -1 -15.7500 41.6849 TC 5 201
1907344S12045 1908 64 SI MM NOT_NAMED 1907-12-12 06:00:00 TS -16.0000 41.6000 main 126 124 _________O____ -1 -16.0000 41.6000 TC 5 199
1907344S12045 1908 64 SI MM NOT_NAMED 1907-12-12 09:00:00 TS -16.2575 41.5000 main 135 132 _________P____ -1 -16.2575 41.5000 TC 5 201
1907344S12045 1908 64 SI MM NOT_NAMED 1907-12-12 12:00:00 TS -16.5000 41.4000 main 139 139 _________O____ -1 -16.5000 41.4000 TC 5 204
1907344S12045 1908 64 SI MM NOT_NAMED 1907-12-12 15:00:00 TS -16.7000 41.2925 main 146 144 _________P____ -1 -16.7000 41.2925 TC 4 205
1907344S12045 1908 64 SI MM NOT_NAMED 1907-12-12 18:00:00 TS -16.9000 41.2000 main 150 150 _________O____ -1 -16.9000 41.2000 TC 5 198
1907344S12045 1908 64 SI MM NOT_NAMED 1907-12-12 21:00:00 TS -17.1425 41.1425 main 153 153 _________P____ -1 -17.1425 41.1425 TC 5 191
1907344S12045 1908 64 SI MM NOT_NAMED 1907-12-13 00:00:00 TS -17.4000 41.1000 main 171 171 _________O____ -1 -17.4000 41.1000 TC 5 190
1907344S12045 1908 64 SI MM NOT_NAMED 1907-12-13 03:00:00 TS -17.6425 41.0500 main 185 177 _________P____ -1 -17.6425 41.0500 TC 5 191
1907344S12045 1908 64 SI MM NOT_NAMED 1907-12-13 06:00:00 TS -17.9000 41.0000 main 201 201 _________O____ -1 -17.9000 41.0000 TC 6 191
1907344S12045 1908 64 SI MM NOT_NAMED 1907-12-13 09:00:00 TS -18.1925 40.9425 main 223 223 _________P____ -1 -18.1925 40.9425 TC 6 189
1907344S12045 1908 64 SI MM NOT_NAMED 1907-12-13 12:00:00 TS -18.5000 40.9000 main 252 252 _________O____ -1 -18.5000 40.9000 TC 6 186
1907344S12045 1908 64 SI MM NOT_NAMED 1907-12-13 15:00:00 TS -18.8075 40.8850 main 277 277 _________P____ -1 -18.8075 40.8850 TC 6 179
1907344S12045 1908 64 SI MM NOT_NAMED 1907-12-13 18:00:00 TS -19.1000 40.9000 main 302 302 _________O____ -1 -19.1000 40.9000 TC 6 174
1907344S12045 1908 64 SI MM NOT_NAMED 1907-12-13 21:00:00 TS -19.3650 40.9425 main 329 329 _________P____ -1 -19.3650 40.9425 TC 5 169
1907344S12045 1908 64 SI MM NOT_NAMED 1907-12-14 00:00:00 TS -19.6000 41.0000 main 329 315 _________O____ -1 -19.6000 41.0000 TC 5 167
1907344S12045 1908 64 SI MM NOT_NAMED 1907-12-14 03:00:00 TS -19.8150 41.0500 main 307 294 _________P____ -1 -19.8150 41.0500 TC 4 167
1907344S12045 1908 64 SI MM NOT_NAMED 1907-12-14 06:00:00 TS -20.0000 41.1000 main 294 288 _________O____ -1 -20.0000 41.1000 TC 4 164
1907344S12045 1908 64 SI MM NOT_NAMED 1907-12-14 09:00:00 TS -20.1575 41.1500 main 274 268 _________P____ -1 -20.1575 41.1500 TC 3 163
1907344S12045 1908 64 SI MM NOT_NAMED 1907-12-14 12:00:00 TS -20.3000 41.2000 main 268 263 _________O____ -1 -20.3000 41.2000 TC 3 163
1907344S12045 1908 64 SI MM NOT_NAMED 1907-12-14 15:00:00 TS -20.4575 41.2500 main 249 245 _________P____ -1 -20.4575 41.2500 TC 3 163
1907344S12045 1908 64 SI MM NOT_NAMED 1907-12-14 18:00:00 TS -20.6000 41.3000 main 245 241 _________O____ -1 -20.6000 41.3000 TC 3 159
1907344S12045 1908 64 SI MM NOT_NAMED 1907-12-14 21:00:00 TS -20.7000 41.3425 main 241 227 _________P____ -1 -20.7000 41.3425 TC 2 153
1907344S12045 1908 64 SI MM NOT_NAMED 1907-12-15 00:00:00 TS -20.8000 41.4000 main 227 214 _________O____ -1 -20.8000 41.4000 TC 3 151
1907344S12045 1908 64 SI MM NOT_NAMED 1907-12-15 03:00:00 TS -20.9350 41.4850 main 214 199 _________P____ -1 -20.9350 41.4850 TC 4 149
1907344S12045 1908 64 SI MM NOT_NAMED 1907-12-15 06:00:00 TS -21.1000 41.6000 main 199 182 _________O____ -1 -21.1000 41.6000 TC 4 146
1907344S12045 1908 64 SI MM NOT_NAMED 1907-12-15 09:00:00 TS -21.3000 41.7499 main 182 154 _________P____ -1 -21.3000 41.7499 TC 5 145
1907344S12045 1908 64 SI MM NOT_NAMED 1907-12-15 12:00:00 TS -21.5000 41.9000 main 154 140 _________O____ -1 -21.5000 41.9000 TC 4 146
1907344S12045 1908 64 SI MM NOT_NAMED 1907-12-15 15:00:00 TS -21.6500 42.0001 main 140 121 _________P____ -1 -21.6500 42.0001 TC 4 149
1907344S12045 1908 64 SI MM NOT_NAMED 1907-12-15 18:00:00 TS -21.8000 42.1000 main 121 105 _________O____ -1 -21.8000 42.1000 TC 4 148
1907344S12045 1908 64 SI MM NOT_NAMED 1907-12-15 21:00:00 TS -21.9850 42.2276 main 105 82 _________P____ -1 -21.9850 42.2276 TC 5 145
1907344S12045 1908 64 SI MM NOT_NAMED 1907-12-16 00:00:00 TS -22.2000 42.4000 main 82 62 _________O____ -1 -22.2000 42.4000 TC 6 142
1907344S12045 1908 64 SI MM NOT_NAMED 1907-12-16 03:00:00 TS -22.4499 42.6200 main 62 46 _________P____ -1 -22.4499 42.6200 TC 7 137
1907344S12045 1908 64 SI MM NOT_NAMED 1907-12-16 06:00:00 TS -22.7000 42.9000 main 46 23 _________O____ -1 -22.7000 42.9000 TC 7 129
1907344S12045 1908 64 SI MM NOT_NAMED 1907-12-16 09:00:00 TS -22.9151 43.2425 main 23 0 _________P____ -1 -22.9151 43.2425 TC 8 122
1907344S12045 1908 64 SI MM NOT_NAMED 1907-12-16 12:00:00 TS -23.1000 43.6000 main 0 0 _________O____ -1 -23.1000 43.6000 TC 7 120
1907344S12045 1908 64 SI MM NOT_NAMED 1907-12-16 15:00:00 TS -23.2649 43.9076 main 0 0 _________P____ -1 -23.2649 43.9076 TC 6 119
1907344S12045 1908 64 SI MM NOT_NAMED 1907-12-16 18:00:00 TS -23.4000 44.2000 main 0 0 _________O____ -1 -23.4000 44.2000 TC 6 113
1907344S12045 1908 64 SI MM NOT_NAMED 1907-12-16 21:00:00 TS -23.5000 44.5076 main 0 0 _________P____ -1 -23.5000 44.5076 TC 6 110
1907344S12045 1908 64 SI MM NOT_NAMED 1907-12-17 00:00:00 TS -23.6000 44.8000 main 0 0 _________O____ -1 -23.6000 44.8000 TC 6 116
1907344S12045 1908 64 SI MM NOT_NAMED 1907-12-17 03:00:00 TS -23.7424 45.0501 main 0 0 _________P____ -1 -23.7424 45.0501 TC 5 123
1907344S12045 1908 64 SI MM NOT_NAMED 1907-12-17 06:00:00 TS -23.9000 45.3000 main 0 0 _________O____ -1 -23.9000 45.3000 TC 6 122
1907344S12045 1908 64 SI MM NOT_NAMED 1907-12-17 09:00:00 TS -24.0575 45.6000 main 0 0 _________P____ -1 -24.0575 45.6000 TC 6 119
1907344S12045 1908 64 SI MM NOT_NAMED 1907-12-17 12:00:00 TS -24.2000 45.9000 main 0 0 _________O____ -1 -24.2000 45.9000 TC 6 116
1907344S12045 1908 64 SI MM NOT_NAMED 1907-12-17 15:00:00 TS -24.3074 46.1501 main 0 0 _________P____ -1 -24.3074 46.1501 TC 5 114
1907344S12045 1908 64 SI MM NOT_NAMED 1907-12-17 18:00:00 TS -24.4000 46.4000 main 0 0 _________O____ -1 -24.4000 46.4000 TC 5 111
1907344S12045 1908 64 SI MM NOT_NAMED 1907-12-17 21:00:00 TS -24.4977 46.6874 main 0 0 _________P____ -1 -24.4977 46.6874 TC 6 110
1907344S12045 1908 64 SI MM NOT_NAMED 1907-12-18 00:00:00 TS -24.6000 47.0000 main 0 _________O____ -1 -24.6000 47.0000 TC 6 110

IBTrACS Databaseについて

本データベースは、米国NOAAが公開する1842年以降の世界の熱帯低気圧のベストトラックデータアーカイブInternational Best Track Archive for Climate Stewardship (IBTrACS)を、ウェブで閲覧しやすい形式に変換したものです。

最終更新日:2021-11-26